Time;durP1;ratioP1;P1;durP2;ratioP2;P2;SDS_P1;SDS_P2;PMS_P1;PMS_P2;Temp;Humidity;BMP_temperature;BMP_pressure;BME280_temperature;BME280_humidity;BME280_pressure;Samples;Min_cycle;Max_cycle;Signal;HPM_P1;HPM_P2
2024/03/23 00:01:19;;;;;;;10.90;7.30;;;;;;;24.26;21.68;100693.39;108005;1256;68394;-88
2024/03/23 00:03:44;;;;;;;11.70;7.60;;;;;;;24.26;21.65;100687.27;107525;1264;68459;-88
2024/03/23 00:06:11;;;;;;;9.70;7.80;;;;;;;24.27;21.57;100683.37;107908;1257;68308;-88
2024/03/23 00:08:36;;;;;;;9.70;8.10;;;;;;;24.26;21.64;100683.61;108766;1256;67874;-88
2024/03/23 00:13:48;;;;;;;10.30;8.70;;;;;;;24.26;21.74;100680.23;108015;1256;68288;-88
2024/03/23 00:16:14;;;;;;;11.80;8.50;;;;;;;24.27;21.60;100675.20;108131;1259;68269;-88
2024/03/23 00:18:40;;;;;;;12.70;8.60;;;;;;;24.26;21.69;100674.52;108237;1259;69472;-89
2024/03/23 00:21:06;;;;;;;10.40;8.40;;;;;;;24.27;21.51;100676.67;108515;1258;68317;-89
2024/03/23 00:23:31;;;;;;;10.60;8.20;;;;;;;24.28;21.56;100675.29;108335;1257;68415;-87
2024/03/23 00:25:57;;;;;;;11.80;8.90;;;;;;;24.28;21.67;100676.10;108139;1259;68458;-88
2024/03/23 00:28:23;;;;;;;11.50;8.20;;;;;;;24.28;21.50;100679.20;108470;1257;66757;-88
2024/03/23 00:30:48;;;;;;;10.90;8.40;;;;;;;24.30;21.72;100681.23;108356;1256;68432;-88
2024/03/23 00:33:14;;;;;;;10.60;8.30;;;;;;;24.29;21.61;100679.48;108163;1257;69095;-88
2024/03/23 00:35:40;;;;;;;9.40;8.20;;;;;;;24.30;21.58;100677.52;108124;1256;68541;-88
2024/03/23 00:38:13;;;;;;;8.80;7.90;;;;;;;24.30;21.65;100680.62;107452;1260;68352;-91
2024/03/23 00:40:39;;;;;;;10.20;8.00;;;;;;;24.30;21.75;100680.71;107354;1259;68407;-88
2024/03/23 00:43:04;;;;;;;9.90;7.70;;;;;;;24.30;21.57;100675.41;107736;1260;68360;-88
2024/03/23 00:45:30;;;;;;;11.70;8.10;;;;;;;24.30;21.53;100679.17;107979;1257;68280;-88
2024/03/23 00:47:55;;;;;;;11.40;8.60;;;;;;;24.29;21.54;100673.22;107736;1256;68320;-88
2024/03/23 00:50:25;;;;;;;9.70;8.00;;;;;;;24.29;21.55;100675.48;107993;1257;68331;31
2024/03/23 00:52:51;;;;;;;9.90;8.20;;;;;;;24.28;21.58;100676.24;107719;1258;72445;-87
2024/03/23 00:55:16;;;;;;;9.30;7.80;;;;;;;24.28;21.55;100679.08;107503;1259;68372;-89
2024/03/23 00:57:42;;;;;;;10.20;8.60;;;;;;;24.28;21.59;100680.63;108138;1257;68276;-88
2024/03/23 01:00:10;;;;;;;8.40;7.50;;;;;;;24.28;21.70;100677.73;108798;1257;66358;-88
2024/03/23 01:02:36;;;;;;;10.00;8.60;;;;;;;24.28;21.49;100680.01;108738;1258;68465;-88
2024/03/23 01:05:01;;;;;;;9.00;7.90;;;;;;;24.28;21.56;100677.86;108777;1256;66279;-88
2024/03/23 01:07:27;;;;;;;9.90;8.10;;;;;;;24.29;21.55;100672.34;109385;1257;68381;-88
2024/03/23 01:09:53;;;;;;;12.00;8.30;;;;;;;24.29;21.45;100670.18;108714;1257;68380;-88
2024/03/23 01:12:18;;;;;;;10.30;7.90;;;;;;;24.30;21.61;100673.01;107769;1257;68435;-88
2024/03/23 01:14:44;;;;;;;10.20;8.50;;;;;;;24.30;21.53;100669.24;107546;1257;68384;-88
2024/03/23 01:17:10;;;;;;;10.90;8.70;;;;;;;24.31;21.54;100669.86;107588;1257;68372;-88
2024/03/23 01:19:35;;;;;;;10.20;8.20;;;;;;;24.30;21.51;100668.21;108237;1258;68528;-88
2024/03/23 01:22:01;;;;;;;9.50;8.20;;;;;;;24.30;21.52;100665.91;108296;1257;68784;-88
2024/03/23 01:24:26;;;;;;;11.20;8.80;;;;;;;24.29;21.57;100663.44;107574;1256;72520;-88
2024/03/23 01:26:52;;;;;;;11.60;8.80;;;;;;;24.29;21.35;100663.49;107491;1258;68306;-88
2024/03/23 01:29:17;;;;;;;9.50;8.40;;;;;;;24.29;21.38;100660.26;107552;1257;68318;-88
2024/03/23 01:31:43;;;;;;;10.10;8.20;;;;;;;24.30;21.35;100657.42;107446;1257;68526;-88
2024/03/23 01:34:08;;;;;;;9.60;8.20;;;;;;;24.28;21.46;100651.63;107618;1257;68406;-88
2024/03/23 01:36:34;;;;;;;11.50;8.40;;;;;;;24.28;21.48;100650.18;107652;1257;66482;-88
2024/03/23 01:39:00;;;;;;;10.10;8.80;;;;;;;24.28;21.58;100648.59;107648;1257;68615;-88
2024/03/23 01:41:25;;;;;;;9.30;8.20;;;;;;;24.27;21.45;100645.27;107615;1257;68304;-88
2024/03/23 01:46:25;;;;;;;9.90;8.50;;;;;;;24.27;21.54;100643.37;107282;1259;81299;-88
2024/03/23 01:48:50;;;;;;;11.00;8.50;;;;;;;24.26;21.34;100639.31;107238;1260;68501;-88
2024/03/23 01:51:16;;;;;;;9.70;8.60;;;;;;;24.26;21.45;100637.88;107369;1259;68529;-88
2024/03/23 01:53:41;;;;;;;12.10;8.20;;;;;;;24.26;21.39;100635.31;108051;1259;68348;-88
2024/03/23 01:56:13;;;;;;;10.90;8.60;;;;;;;24.25;21.53;100632.02;107993;1260;68356;31
2024/03/23 02:01:25;;;;;;;10.30;8.70;;;;;;;24.25;21.42;100631.77;107808;1257;68272;-88
2024/03/23 02:03:51;;;;;;;10.10;8.60;;;;;;;24.25;21.40;100633.14;108025;1257;68414;-89
2024/03/23 02:06:17;;;;;;;10.00;8.80;;;;;;;24.26;21.40;100629.80;107705;1261;66791;-89
2024/03/23 02:08:43;;;;;;;10.70;8.50;;;;;;;24.26;21.34;100629.29;107553;1260;68415;-89
2024/03/23 02:11:09;;;;;;;10.10;8.40;;;;;;;24.26;21.38;100626.16;107416;1257;68867;-89
2024/03/23 02:16:21;;;;;;;9.40;8.10;;;;;;;24.26;21.52;100625.70;107739;1260;68417;-88
2024/03/23 02:18:47;;;;;;;8.90;8.00;;;;;;;24.25;21.29;100622.86;107540;1256;68465;-88
2024/03/23 02:21:13;;;;;;;10.70;8.60;;;;;;;24.24;21.36;100622.72;108158;1257;68239;-89
2024/03/23 02:23:38;;;;;;;9.20;8.00;;;;;;;24.26;21.44;100621.88;107582;1262;66598;-89
2024/03/23 02:26:04;;;;;;;9.90;8.20;;;;;;;24.26;21.30;100620.08;107973;1257;68441;-89
2024/03/23 02:28:29;;;;;;;10.20;8.00;;;;;;;24.26;21.31;100618.80;107449;1257;73978;-89
2024/03/23 02:30:55;;;;;;;9.80;7.60;;;;;;;24.26;21.39;100620.85;107721;1256;68342;-89
2024/03/23 02:33:21;;;;;;;10.00;7.70;;;;;;;24.26;21.28;100623.88;107696;1260;68432;-88
2024/03/23 02:35:47;;;;;;;10.80;7.60;;;;;;;24.26;21.21;100622.23;108073;1257;68877;-88
2024/03/23 02:38:12;;;;;;;9.60;7.80;;;;;;;24.26;21.43;100621.89;108053;1257;68282;-87
2024/03/23 02:40:46;;;;;;;10.30;7.40;;;;;;;24.26;21.24;100622.75;107657;1257;68493;-91
2024/03/23 02:43:11;;;;;;;8.50;7.60;;;;;;;24.26;21.37;100621.67;107314;1259;68224;-87
2024/03/23 02:45:37;;;;;;;11.10;7.70;;;;;;;24.26;21.17;100622.19;107535;1258;68434;-88
2024/03/23 02:48:03;;;;;;;9.50;7.30;;;;;;;24.26;21.23;100623.48;107574;1262;68383;-88
2024/03/23 02:50:29;;;;;;;9.40;7.70;;;;;;;24.26;21.25;100624.09;107813;1260;68448;-88
2024/03/23 02:52:54;;;;;;;9.90;7.80;;;;;;;24.27;21.35;100624.59;107656;1256;68432;-88
2024/03/23 02:55:20;;;;;;;10.10;7.50;;;;;;;24.27;21.18;100621.15;107479;1257;68435;-88
2024/03/23 02:57:47;;;;;;;12.10;7.30;;;;;;;24.27;21.30;100616.94;107553;1257;68445;-88
2024/03/23 03:00:13;;;;;;;8.40;7.40;;;;;;;24.27;21.28;100619.05;108284;1259;73597;-88
2024/03/23 03:02:39;;;;;;;10.70;7.90;;;;;;;24.27;21.17;100613.39;107694;1257;68924;-88
2024/03/23 03:05:05;;;;;;;9.20;7.70;;;;;;;24.27;21.35;100611.84;107723;1256;68420;-88
2024/03/23 03:10:11;;;;;;;10.00;7.70;;;;;;;24.27;21.23;100605.33;107704;1256;76670;-88
2024/03/23 03:12:37;;;;;;;9.00;7.60;;;;;;;24.26;21.16;100606.40;108053;1260;68468;-88
2024/03/23 03:15:04;;;;;;;10.00;7.30;;;;;;;24.26;21.13;100602.30;107545;1256;68450;-88
2024/03/23 03:17:30;;;;;;;10.20;7.60;;;;;;;24.26;21.13;100602.96;107650;1256;68465;-88
2024/03/23 03:19:56;;;;;;;10.20;7.90;;;;;;;24.26;21.21;100603.68;107714;1257;68400;-88
2024/03/23 03:25:02;;;;;;;8.60;7.70;;;;;;;24.26;21.19;100605.42;107471;1263;81136;-88
2024/03/23 03:27:28;;;;;;;8.50;7.60;;;;;;;24.26;21.38;100599.66;107648;1261;68345;-88
2024/03/23 03:29:53;;;;;;;10.60;7.50;;;;;;;24.27;21.08;100603.67;107421;1265;68862;-88
2024/03/23 03:32:19;;;;;;;11.20;8.20;;;;;;;24.27;21.26;100603.58;107765;1258;69024;-88
2024/03/23 03:34:44;;;;;;;12.00;8.30;;;;;;;24.27;21.15;100604.96;107688;1256;68429;-87
2024/03/23 03:37:10;;;;;;;10.20;8.50;;;;;;;24.28;21.14;100602.17;107165;1260;68288;-87
2024/03/23 03:39:35;;;;;;;9.90;7.80;;;;;;;24.27;21.05;100598.59;107435;1257;68863;-87
2024/03/23 03:42:06;;;;;;;12.60;9.00;;;;;;;24.26;21.21;100597.24;107658;1260;68441;-87
2024/03/23 03:44:32;;;;;;;11.40;8.40;;;;;;;24.26;21.09;100600.40;107833;1256;68353;-88
2024/03/23 03:46:57;;;;;;;12.80;8.60;;;;;;;24.26;21.16;100595.35;107647;1257;68436;-88
2024/03/23 03:49:31;;;;;;;11.20;8.40;;;;;;;24.26;20.98;100593.97;107424;1257;68427;-91
2024/03/23 03:51:57;;;;;;;11.70;8.70;;;;;;;24.25;21.21;100593.34;107384;1257;68352;-88
2024/03/23 03:54:22;;;;;;;11.50;8.30;;;;;;;24.25;21.08;100588.77;107612;1257;68379;-88
2024/03/23 03:56:48;;;;;;;11.20;8.50;;;;;;;24.25;21.15;100593.30;108082;1257;68378;-88
2024/03/23 03:59:14;;;;;;;11.10;8.60;;;;;;;24.25;21.12;100590.33;108205;1260;68464;-88
2024/03/23 04:01:44;;;;;;;11.00;8.20;;;;;;;24.25;21.09;100590.47;107845;1257;68420;31
2024/03/23 04:04:09;;;;;;;12.10;8.70;;;;;;;24.25;21.22;100588.98;107627;1257;68220;-88
2024/03/23 04:06:35;;;;;;;10.00;8.50;;;;;;;24.25;21.06;100586.92;108128;1257;68424;-89
2024/03/23 04:09:01;;;;;;;10.70;8.40;;;;;;;24.25;21.07;100586.88;109583;1256;68765;-89
2024/03/23 04:14:27;;;;;;;11.90;9.10;;;;;;;24.25;21.25;100585.86;109531;1256;67798;-89
2024/03/23 04:16:53;;;;;;;11.40;8.40;;;;;;;24.26;21.08;100585.90;109698;1258;67122;-88
2024/03/23 04:19:22;;;;;;;12.00;8.30;;;;;;;24.28;21.08;100589.33;109704;1256;66399;-90
2024/03/23 04:21:48;;;;;;;10.70;8.50;;;;;;;24.28;21.05;100590.60;109710;1256;72724;-89
2024/03/23 04:24:15;;;;;;;16.70;8.60;;;;;;;24.29;21.13;100586.77;108254;1257;66355;-88
2024/03/23 04:26:42;;;;;;;11.20;8.40;;;;;;;24.29;21.07;100585.95;107876;1259;67119;-88
2024/03/23 04:29:07;;;;;;;10.40;8.00;;;;;;;24.30;20.98;100585.79;107913;1256;68413;-89
2024/03/23 04:31:34;;;;;;;12.60;8.60;;;;;;;24.30;20.97;100586.35;107588;1257;66436;-89
2024/03/23 04:34:01;;;;;;;10.90;8.10;;;;;;;24.30;21.05;100585.95;107311;1263;68503;-89
2024/03/23 04:36:26;;;;;;;12.40;8.40;;;;;;;24.29;21.00;100588.00;107691;1260;68378;-89
2024/03/23 04:38:52;;;;;;;10.20;8.20;;;;;;;24.29;21.04;100589.51;107548;1259;68381;-88
2024/03/23 04:41:18;;;;;;;11.30;7.90;;;;;;;24.29;21.08;100591.61;107585;1256;68485;-89
2024/03/23 04:43:43;;;;;;;11.30;8.90;;;;;;;24.29;20.97;100591.91;107693;1259;68489;-89
2024/03/23 04:48:48;;;;;;;10.90;8.00;;;;;;;24.27;21.04;100594.16;108947;1256;68397;-88
2024/03/23 04:51:23;;;;;;;10.20;8.00;;;;;;;24.28;21.00;100596.98;108540;1259;68288;-88
2024/03/23 04:53:49;;;;;;;9.60;8.10;;;;;;;24.27;20.97;100600.17;108331;1256;68337;-88
2024/03/23 04:56:16;;;;;;;13.70;8.50;;;;;;;24.28;21.00;100596.83;107788;1256;68406;-88
2024/03/23 04:58:42;;;;;;;10.40;8.00;;;;;;;24.27;21.01;100595.75;107629;1258;68292;-88
2024/03/23 05:01:15;;;;;;;9.00;8.00;;;;;;;24.27;20.97;100598.16;107525;1256;68489;-89
2024/03/23 05:03:40;;;;;;;10.60;8.30;;;;;;;24.26;20.96;100598.53;107443;1256;68695;-89
2024/03/23 05:06:06;;;;;;;10.40;7.90;;;;;;;24.27;20.94;100597.71;107669;1257;68374;-88
2024/03/23 05:08:31;;;;;;;11.70;8.70;;;;;;;24.26;20.91;100597.92;107770;1256;73840;-89
2024/03/23 05:10:57;;;;;;;9.80;8.00;;;;;;;24.26;20.99;100594.23;107675;1258;68497;-88
2024/03/23 05:13:22;;;;;;;13.30;8.40;;;;;;;24.26;21.13;100596.90;107699;1257;68424;-88
2024/03/23 05:15:53;;;;;;;10.40;8.70;;;;;;;24.26;20.89;100600.39;107377;1262;72265;-89
2024/03/23 05:18:19;;;;;;;;;;;;;;;24.25;21.00;100601.21;107774;1258;73588;-87
2024/03/23 05:23:45;;;;;;;9.40;7.90;;;;;;;24.23;20.98;100595.84;108644;1257;68967;-87
2024/03/23 05:26:11;;;;;;;9.90;8.60;;;;;;;24.24;20.99;100597.07;107593;1264;68378;-90
2024/03/23 05:28:37;;;;;;;12.30;8.60;;;;;;;24.25;20.96;100597.41;107465;1258;68475;-89
2024/03/23 05:31:09;;;;;;;11.90;8.90;;;;;;;24.27;21.04;100594.06;107531;1256;68425;-94
2024/03/23 05:33:38;;;;;;;13.90;8.70;;;;;;;24.27;20.95;100592.45;107311;1257;68475;-89
2024/03/23 05:36:04;;;;;;;11.30;9.10;;;;;;;24.29;20.93;100592.08;107577;1257;68410;-87
2024/03/23 05:38:30;;;;;;;12.10;9.00;;;;;;;24.31;21.00;100587.77;107760;1260;68355;-87
2024/03/23 05:40:59;;;;;;;12.70;8.60;;;;;;;24.33;20.90;100587.39;107836;1257;68531;-90
2024/03/23 05:43:25;;;;;;;12.30;8.90;;;;;;;24.35;20.80;100582.89;107560;1257;72633;-89
2024/03/23 05:46:10;;;;;;;12.40;9.00;;;;;;;24.38;20.89;100583.67;107374;1257;68368;-87
2024/03/23 05:48:35;;;;;;;10.20;8.20;;;;;;;24.39;20.75;100583.27;107546;1257;68244;-89
2024/03/23 05:51:01;;;;;;;13.00;8.70;;;;;;;24.41;21.01;100581.50;108432;1257;68375;-88
2024/03/23 05:53:28;;;;;;;10.10;8.10;;;;;;;24.45;20.90;100581.54;107642;1257;68464;-88
2024/03/23 05:56:00;;;;;;;10.90;8.50;;;;;;;24.48;20.87;100579.86;107717;1258;68324;-88
2024/03/23 05:58:27;;;;;;;11.90;8.30;;;;;;;24.52;20.64;100579.95;107718;1256;68331;-87
2024/03/23 06:01:01;;;;;;;10.20;8.30;;;;;;;24.55;20.77;100576.63;107292;1257;68306;-92
2024/03/23 06:03:27;;;;;;;10.20;9.00;;;;;;;24.58;20.71;100578.17;107381;1257;68263;-88
2024/03/23 06:05:53;;;;;;;11.30;8.40;;;;;;;24.62;20.65;100576.89;107668;1258;68257;-88
2024/03/23 06:08:19;;;;;;;12.50;8.50;;;;;;;24.66;20.70;100573.77;107582;1263;68442;-88
2024/03/23 06:10:46;;;;;;;11.30;8.90;;;;;;;24.67;20.72;100574.45;107887;1259;68247;-88
2024/03/23 06:13:11;;;;;;;11.10;8.80;;;;;;;24.70;20.58;100578.23;107739;1256;68497;-88
2024/03/23 06:15:37;;;;;;;11.00;8.30;;;;;;;24.72;20.69;100573.74;107395;1256;68384;-88
2024/03/23 06:18:07;;;;;;;11.50;9.10;;;;;;;24.74;20.72;100572.17;107640;1256;68487;-88
2024/03/23 06:20:34;;;;;;;11.70;9.10;;;;;;;24.75;20.58;100574.84;107774;1256;72718;-87
2024/03/23 06:23:01;;;;;;;13.10;9.10;;;;;;;24.76;20.63;100571.84;107535;1256;333174;-88
2024/03/23 06:25:29;;;;;;;10.30;8.40;;;;;;;24.78;20.46;100570.73;107561;1256;68481;-88
2024/03/23 06:34:58;;;;;;;10.80;8.30;;;;;;;24.81;20.62;100569.86;109167;1257;73646;-89
2024/03/23 06:37:23;;;;;;;16.40;8.90;;;;;;;24.84;20.54;100574.61;108234;1263;68515;-89
2024/03/23 06:40:10;;;;;;;12.60;8.30;;;;;;;24.86;20.45;100577.40;108228;1261;68483;31
2024/03/23 06:42:36;;;;;;;11.00;8.40;;;;;;;24.87;20.33;100579.35;108510;1257;68262;-89
2024/03/23 06:45:03;;;;;;;9.10;7.50;;;;;;;24.88;20.39;100579.80;108821;1257;68237;-88
2024/03/23 06:50:31;;;;;;;11.50;7.60;;;;;;;24.91;20.48;100578.16;108674;1260;68378;-88
2024/03/23 06:52:57;;;;;;;12.20;7.70;;;;;;;24.94;20.56;100580.32;107837;1259;68374;-88
2024/03/23 06:55:24;;;;;;;10.00;7.60;;;;;;;24.96;20.58;100578.45;107767;1256;68493;-88
2024/03/23 06:57:50;;;;;;;8.80;7.30;;;;;;;24.99;20.57;100582.63;108026;1256;68464;-89
2024/03/23 07:00:16;;;;;;;11.20;7.70;;;;;;;25.00;20.53;100578.29;107450;1256;68411;-88
2024/03/23 07:14:49;;;;;;;11.50;6.50;;;;;;;25.47;20.16;100574.80;107427;1262;603094;-89
2024/03/23 07:17:18;;;;;;;8.80;6.90;;;;;;;25.62;19.96;100574.67;107169;1266;311544;-89
2024/03/23 07:19:44;;;;;;;8.90;7.30;;;;;;;25.57;20.28;100575.02;107665;1260;68332;-89
2024/03/23 07:22:10;;;;;;;10.00;6.80;;;;;;;25.54;20.23;100576.46;108638;1260;68380;-89
2024/03/23 07:24:45;;;;;;;9.10;6.00;;;;;;;25.51;20.20;100576.02;107352;1266;68340;-90
2024/03/23 07:27:11;;;;;;;8.60;6.90;;;;;;;25.48;20.20;100574.25;107387;1262;68288;-89
2024/03/23 07:29:36;;;;;;;9.80;6.40;;;;;;;25.46;20.29;100572.22;107687;1260;68525;-89
2024/03/23 07:32:02;;;;;;;10.50;6.70;;;;;;;25.43;20.21;100571.53;107445;1263;68421;-89
2024/03/23 07:34:28;;;;;;;9.00;6.00;;;;;;;25.42;20.29;100569.39;107849;1260;68362;-88
2024/03/23 07:36:57;;;;;;;7.90;6.20;;;;;;;25.41;20.18;100567.80;107734;1263;68467;31
2024/03/23 07:39:23;;;;;;;10.60;6.30;;;;;;;25.40;20.11;100559.93;107299;1262;68350;-88
2024/03/23 07:41:48;;;;;;;10.10;6.40;;;;;;;25.40;20.38;100565.45;107404;1262;68328;-88
2024/03/23 07:44:14;;;;;;;7.20;5.60;;;;;;;25.39;20.51;100558.52;107266;1262;68338;-88
2024/03/23 07:46:39;;;;;;;8.90;5.70;;;;;;;25.38;20.37;100567.99;107613;1260;68439;-88
2024/03/23 07:49:05;;;;;;;8.50;5.80;;;;;;;25.38;20.51;100563.52;107466;1260;68363;-88
2024/03/23 07:51:39;;;;;;;10.60;6.40;;;;;;;25.37;20.55;100562.09;107442;1261;68511;-92
2024/03/23 07:54:05;;;;;;;7.40;6.00;;;;;;;25.37;20.44;100562.45;107174;1260;68311;-88
2024/03/23 07:56:32;;;;;;;7.20;5.60;;;;;;;25.37;20.43;100561.48;107422;1265;68442;-88
2024/03/23 07:58:57;;;;;;;7.40;5.40;;;;;;;25.36;20.55;100562.15;107357;1260;68499;-88
2024/03/23 08:01:23;;;;;;;7.90;5.90;;;;;;;25.36;20.59;100565.09;107276;1260;68368;-88
2024/03/23 08:03:49;;;;;;;10.30;5.60;;;;;;;25.35;20.60;100564.27;107374;1260;68393;-88
2024/03/23 08:06:16;;;;;;;9.30;5.60;;;;;;;25.35;20.53;100566.14;107479;1260;68353;-88
2024/03/23 08:08:44;;;;;;;7.80;5.30;;;;;;;25.35;20.42;100561.38;107368;1265;68407;-88
2024/03/23 08:11:09;;;;;;;7.00;5.50;;;;;;;25.34;20.40;100561.46;107388;1261;68339;-88
2024/03/23 08:13:35;;;;;;;9.30;5.60;;;;;;;25.35;20.39;100557.40;107502;1263;68404;-88
2024/03/23 08:16:02;;;;;;;8.70;5.40;;;;;;;25.34;20.57;100556.48;107683;1259;68414;-88
2024/03/23 08:18:31;;;;;;;9.50;5.70;;;;;;;25.33;20.44;100555.14;107312;1260;68340;-91
2024/03/23 08:21:05;;;;;;;7.60;5.60;;;;;;;25.32;20.56;100552.78;107627;1260;68448;-88
2024/03/23 08:23:36;;;;;;;7.10;5.30;;;;;;;25.32;20.50;100552.27;107316;1260;68760;-88
2024/03/23 08:26:02;;;;;;;6.90;5.50;;;;;;;25.31;20.55;100549.66;107393;1263;69470;-88
2024/03/23 08:28:27;;;;;;;7.90;5.80;;;;;;;25.31;20.49;100546.16;107501;1266;68397;-88
2024/03/23 08:30:54;;;;;;;8.30;5.80;;;;;;;25.31;20.66;100541.70;107503;1260;68330;-88
2024/03/23 08:36:01;;;;;;;7.50;5.60;;;;;;;25.30;20.49;100537.95;107505;1263;68275;-88
2024/03/23 08:38:27;;;;;;;7.90;5.70;;;;;;;25.30;20.59;100532.70;107698;1263;68396;-89
2024/03/23 08:41:08;;;;;;;7.70;5.90;;;;;;;25.31;20.41;100531.50;107486;1263;68482;-89
2024/03/23 08:43:40;;;;;;;6.50;5.10;;;;;;;25.31;20.42;100529.95;107187;1264;68272;-89
2024/03/23 08:46:12;;;;;;;7.60;5.10;;;;;;;25.31;20.49;100525.83;107103;1270;72767;-89
2024/03/23 08:48:39;;;;;;;6.20;5.30;;;;;;;25.31;20.52;100522.59;107271;1264;68424;-89
2024/03/23 08:51:08;;;;;;;8.00;5.50;;;;;;;25.32;20.56;100520.45;107069;1264;68372;-89
2024/03/23 08:53:37;;;;;;;7.50;6.10;;;;;;;25.32;20.60;100517.81;107057;1269;68417;-89
2024/03/23 08:56:03;;;;;;;7.80;5.70;;;;;;;25.33;20.50;100513.93;107206;1264;68420;-89
2024/03/23 08:58:29;;;;;;;8.70;5.80;;;;;;;25.34;20.85;100508.61;107214;1269;68946;-89
2024/03/23 09:01:13;;;;;;;8.70;5.70;;;;;;;25.34;20.69;100507.19;107171;1264;68266;-89
2024/03/23 09:03:38;;;;;;;8.50;5.50;;;;;;;25.34;20.66;100502.70;107498;1266;68311;-86
2024/03/23 09:08:53;;;;;;;7.90;5.70;;;;;;;25.35;20.46;100496.97;107947;1261;68358;-89
2024/03/23 09:11:18;;;;;;;8.00;5.60;;;;;;;25.35;20.53;100491.20;107632;1261;68352;-88
2024/03/23 09:13:44;;;;;;;9.20;5.10;;;;;;;25.36;20.63;100489.85;107568;1261;68353;-88
2024/03/23 09:16:10;;;;;;;8.40;5.80;;;;;;;25.37;20.71;100487.98;107387;1263;68271;-88
2024/03/23 09:18:36;;;;;;;6.20;5.10;;;;;;;25.37;20.70;100483.91;107663;1260;68402;-88
2024/03/23 09:23:51;;;;;;;7.40;5.20;;;;;;;25.37;20.61;100474.27;107494;1260;68402;-87
2024/03/23 09:26:16;;;;;;;7.60;5.00;;;;;;;25.39;20.70;100469.45;107303;1264;68334;-88
2024/03/23 09:28:42;;;;;;;7.90;4.70;;;;;;;25.39;20.54;100466.92;107461;1263;68478;-88
2024/03/23 09:31:09;;;;;;;6.80;5.30;;;;;;;25.40;20.69;100466.97;107883;1261;68337;-88
2024/03/23 09:36:38;;;;;;;5.60;5.00;;;;;;;25.40;20.67;100464.03;109130;1260;67783;-88
2024/03/23 09:41:46;;;;;;;7.20;4.60;;;;;;;25.42;20.45;100459.73;107803;1260;68398;-89
2024/03/23 09:44:12;;;;;;;5.20;4.40;;;;;;;25.43;20.49;100453.95;108120;1264;66464;-87
2024/03/23 09:46:38;;;;;;;6.50;4.70;;;;;;;25.44;20.24;100442.70;109316;1260;68109;-88
2024/03/23 09:49:08;;;;;;;7.00;4.30;;;;;;;25.44;20.44;100443.98;109325;1262;66712;-88
2024/03/23 09:51:35;;;;;;;6.00;4.00;;;;;;;25.46;20.42;100440.52;108917;1260;66122;-88
2024/03/23 09:54:01;;;;;;;6.30;4.20;;;;;;;25.48;20.20;100434.34;109063;1260;66450;-88
2024/03/23 09:56:26;;;;;;;5.60;4.20;;;;;;;25.50;20.13;100438.11;108457;1263;67768;-88
2024/03/23 09:58:59;;;;;;;7.70;4.10;;;;;;;25.52;20.12;100435.86;107515;1263;68359;-88
2024/03/23 10:01:25;;;;;;;6.80;4.30;;;;;;;25.53;19.86;100433.30;108630;1263;68511;-88
2024/03/23 10:03:51;;;;;;;5.30;4.00;;;;;;;25.54;19.87;100430.03;107243;1263;68353;-88
2024/03/23 10:06:24;;;;;;;6.80;3.70;;;;;;;25.56;19.93;100428.05;107399;1260;68302;-88
2024/03/23 10:09:01;;;;;;;5.40;4.00;;;;;;;25.57;19.66;100421.64;107429;1262;68321;-88
2024/03/23 10:11:29;;;;;;;8.30;3.90;;;;;;;25.57;19.80;100418.03;107304;1265;73642;-88
2024/03/23 10:13:56;;;;;;;4.70;3.50;;;;;;;25.59;19.66;100418.59;107371;1263;69552;-88
2024/03/23 10:16:23;;;;;;;5.70;3.50;;;;;;;25.59;19.43;100412.11;107311;1263;68471;-88
2024/03/23 10:18:49;;;;;;;4.80;3.40;;;;;;;25.59;19.44;100409.07;107251;1263;68420;-88
2024/03/23 10:21:15;;;;;;;4.60;3.40;;;;;;;25.60;19.62;100408.24;107269;1267;66256;-88
2024/03/23 10:23:42;;;;;;;4.80;3.40;;;;;;;25.60;19.61;100402.46;107256;1263;68407;-88
2024/03/23 10:26:27;;;;;;;4.90;3.70;;;;;;;25.59;19.37;100392.59;107380;1263;68488;-88
2024/03/23 10:29:04;;;;;;;7.00;3.90;;;;;;;25.59;19.12;100389.98;107269;1263;68391;-88
2024/03/23 10:31:36;;;;;;;4.50;3.30;;;;;;;25.59;19.22;100387.04;107334;1261;68341;-88
2024/03/23 10:34:03;;;;;;;7.10;3.90;;;;;;;25.60;19.23;100382.18;107302;1264;68346;-88
2024/03/23 10:36:33;;;;;;;4.40;3.60;;;;;;;25.61;19.02;100377.16;107417;1262;72803;-88
2024/03/23 10:38:58;;;;;;;4.60;3.60;;;;;;;25.60;19.12;100371.60;107321;1262;68419;-89
2024/03/23 10:41:34;;;;;;;11.20;3.50;;;;;;;25.61;18.85;100366.70;107141;1262;68368;-88
2024/03/23 10:44:00;;;;;;;5.80;3.40;;;;;;;25.60;18.71;100362.54;107360;1262;68305;-88
2024/03/23 10:46:25;;;;;;;7.00;3.50;;;;;;;25.60;18.83;100360.41;107413;1262;68363;-88
2024/03/23 10:48:51;;;;;;;5.90;3.40;;;;;;;25.60;18.84;100352.34;107588;1262;68331;-88
2024/03/23 10:51:17;;;;;;;5.80;3.50;;;;;;;25.60;18.80;100352.06;107356;1262;68418;-89
2024/03/23 10:53:42;;;;;;;4.50;3.10;;;;;;;25.61;18.70;100344.80;107333;1262;68439;-88
2024/03/23 10:56:26;;;;;;;5.50;3.20;;;;;;;25.61;18.80;100337.48;107255;1263;68455;-89
2024/03/23 11:01:58;;;;;;;5.70;3.20;;;;;;;25.62;18.68;100319.02;108207;1262;68355;-90
2024/03/23 11:04:38;;;;;;;4.30;3.10;;;;;;;25.63;18.53;100317.45;108846;1262;68234;-89
2024/03/23 11:07:24;;;;;;;7.30;3.10;;;;;;;25.64;18.54;100316.55;108389;1262;67426;-88
2024/03/23 11:09:56;;;;;;;4.50;3.30;;;;;;;25.65;18.41;100314.67;107551;1263;68422;-88
2024/03/23 11:12:28;;;;;;;5.60;3.30;;;;;;;25.66;18.25;100308.15;108050;1263;72435;-88
2024/03/23 11:24:14;;;;;;;4.50;3.20;;;;;;;25.70;18.06;100297.15;108871;1261;67981;31
2024/03/23 11:29:22;;;;;;;5.70;2.80;;;;;;;25.74;18.18;100287.08;107362;1263;68823;-89
2024/03/23 11:31:48;;;;;;;5.10;3.00;;;;;;;25.75;17.84;100278.97;107259;1267;68349;-89
2024/03/23 11:34:17;;;;;;;5.40;3.10;;;;;;;25.76;17.78;100276.71;107241;1262;68484;-89
2024/03/23 11:36:44;;;;;;;4.40;2.60;;;;;;;25.77;18.03;100268.86;107161;1262;68305;-89
2024/03/23 11:39:14;;;;;;;4.00;3.00;;;;;;;25.78;17.92;100261.20;107234;1267;66299;-89
2024/03/23 11:41:47;;;;;;;4.10;3.10;;;;;;;25.79;17.88;100255.08;107327;1262;68315;-91
2024/03/23 11:44:19;;;;;;;6.50;3.10;;;;;;;25.79;17.89;100253.84;107168;1262;68383;-89
2024/03/23 11:46:46;;;;;;;3.40;2.70;;;;;;;25.80;17.76;100243.93;107181;1263;68236;-89
2024/03/23 11:49:24;;;;;;;5.60;2.90;;;;;;;25.80;17.73;100237.86;107379;1263;68362;-89
2024/03/23 11:51:50;;;;;;;5.50;3.00;;;;;;;25.80;17.77;100229.09;107310;1262;73480;-89
2024/03/23 11:54:16;;;;;;;3.70;2.80;;;;;;;25.81;17.67;100228.65;107462;1262;68289;-89
2024/03/23 11:57:08;;;;;;;3.20;2.90;;;;;;;25.82;17.67;100227.70;107207;1263;68342;31
2024/03/23 11:59:45;;;;;;;5.90;3.10;;;;;;;25.83;17.65;100222.54;107099;1265;68292;-94
2024/03/23 12:02:11;;;;;;;3.20;2.80;;;;;;;25.84;17.44;100221.34;107198;1264;68347;-89
2024/03/23 12:04:40;;;;;;;4.30;2.80;;;;;;;25.84;17.68;100217.30;107461;1263;66552;-89
2024/03/23 12:07:24;;;;;;;3.50;2.40;;;;;;;25.85;17.63;100214.70;107775;1264;68288;-88
2024/03/23 12:10:10;;;;;;;4.70;2.70;;;;;;;25.86;17.54;100209.64;107365;1264;68392;-90
2024/03/23 12:12:36;;;;;;;5.90;2.80;;;;;;;25.86;17.63;100207.67;107794;1264;68500;-88
2024/03/23 12:15:03;;;;;;;4.50;3.10;;;;;;;25.87;17.61;100201.98;107585;1262;66972;-88
2024/03/23 12:20:15;;;;;;;5.60;3.20;;;;;;;25.88;17.83;100196.02;107586;1262;68260;-88
2024/03/23 12:22:41;;;;;;;4.30;3.10;;;;;;;25.89;17.79;100193.67;107723;1266;67714;-88
2024/03/23 12:25:07;;;;;;;5.20;2.90;;;;;;;25.89;17.75;100184.95;107738;1262;68806;-88
2024/03/23 12:27:32;;;;;;;5.00;3.10;;;;;;;25.91;17.75;100178.42;107814;1263;68390;-88
2024/03/23 12:29:58;;;;;;;5.80;3.00;;;;;;;25.92;17.68;100180.10;107745;1261;68377;-87
2024/03/23 12:35:09;;;;;;;5.60;3.20;;;;;;;25.95;17.62;100173.32;107375;1262;68313;-88
2024/03/23 12:37:35;;;;;;;3.50;3.10;;;;;;;25.96;17.52;100172.02;107506;1263;68309;-88